Time;durP1;ratioP1;P1;durP2;ratioP2;P2;SDS_P1;SDS_P2;PMS_P1;PMS_P2;Temp;Humidity;BMP_temperature;BMP_pressure;BME280_temperature;BME280_humidity;BME280_pressure;Samples;Min_cycle;Max_cycle;Signal;HPM_P1;HPM_P2
2023/08/08 00:01:12;;;;;;;15.85;14.10;;;12.60;99.90;;;;;;4962972;28;20035;-77
2023/08/08 00:03:38;;;;;;;17.67;15.95;;;12.60;99.90;;;;;;4955091;29;20047;-77
2023/08/08 00:06:03;;;;;;;17.45;15.75;;;12.70;99.90;;;;;;4953649;29;20103;-77
2023/08/08 00:08:29;;;;;;;19.95;17.95;;;12.70;99.90;;;;;;4945200;29;20040;-77
2023/08/08 00:10:55;;;;;;;19.02;16.50;;;12.70;99.90;;;;;;4951785;29;20078;-77
2023/08/08 00:13:20;;;;;;;20.48;18.27;;;12.70;99.90;;;;;;4941874;28;20051;-77
2023/08/08 00:15:46;;;;;;;19.13;17.33;;;12.80;99.90;;;;;;4963870;28;20050;-77
2023/08/08 00:18:11;;;;;;;21.55;19.25;;;12.80;99.90;;;;;;4950938;28;20070;-77
2023/08/08 00:20:37;;;;;;;20.75;18.55;;;12.80;99.90;;;;;;4953342;29;20091;-77
2023/08/08 00:23:03;;;;;;;19.63;17.63;;;12.90;99.90;;;;;;4955010;29;20102;-77
2023/08/08 00:25:28;;;;;;;21.65;18.50;;;12.90;99.90;;;;;;4954710;29;20493;-77
2023/08/08 00:27:54;;;;;;;19.58;17.67;;;12.90;99.90;;;;;;4949843;28;20045;-77
2023/08/08 00:30:20;;;;;;;20.35;18.27;;;12.90;99.90;;;;;;4958837;28;20058;-77
2023/08/08 00:32:46;;;;;;;19.02;17.20;;;12.90;99.90;;;;;;4954569;29;20477;-77
2023/08/08 00:35:11;;;;;;;20.65;18.48;;;13.00;99.90;;;;;;4954626;29;20513;-77
2023/08/08 00:37:37;;;;;;;18.88;17.10;;;13.00;99.90;;;;;;4934137;29;20498;-77
2023/08/08 00:40:03;;;;;;;20.33;17.35;;;13.00;99.90;;;;;;4954389;29;20552;-77
2023/08/08 00:42:29;;;;;;;21.10;18.73;;;13.00;99.90;;;;;;4951471;29;20047;-77
2023/08/08 00:45:01;;;;;;;18.92;17.02;;;13.00;99.90;;;;;;4954196;29;20054;-77
2023/08/08 00:47:27;;;;;;;21.13;18.80;;;13.00;99.90;;;;;;4950042;29;20051;-77
2023/08/08 00:49:53;;;;;;;22.08;18.40;;;13.10;99.90;;;;;;4954278;29;20051;-77
2023/08/08 00:52:19;;;;;;;20.17;18.08;;;13.10;99.90;;;;;;4957879;28;20497;-77
2023/08/08 00:54:45;;;;;;;18.48;16.75;;;13.00;99.90;;;;;;4955195;28;20320;-77
2023/08/08 00:57:10;;;;;;;22.17;18.90;;;13.00;99.90;;;;;;4950056;29;20032;-77
2023/08/08 00:59:36;;;;;;;17.13;15.32;;;13.00;99.90;;;;;;4953227;29;20090;-77
2023/08/08 01:02:02;;;;;;;25.85;19.67;;;13.10;99.90;;;;;;4960302;28;20179;-77
2023/08/08 01:04:27;;;;;;;20.23;17.45;;;13.00;99.90;;;;;;4968636;28;20061;-77
2023/08/08 01:07:17;;;;;;;23.15;18.02;;;13.10;99.90;;;;;;4956703;28;20067;-77
2023/08/08 01:09:55;;;;;;;18.40;16.60;;;13.10;99.90;;;;;;4946406;29;20386;-77
2023/08/08 01:12:24;;;;;;;19.13;17.10;;;13.00;99.90;;;;;;4952906;29;20094;-77
2023/08/08 01:14:50;;;;;;;21.67;18.00;;;13.10;99.90;;;;;;4947623;29;20036;-77
2023/08/08 01:17:17;;;;;;;21.75;17.88;;;13.10;99.90;;;;;;4953053;29;20035;-77
2023/08/08 01:19:43;;;;;;;24.13;18.67;;;13.10;99.90;;;;;;4948233;29;20470;-77
2023/08/08 01:22:22;;;;;;;21.98;18.73;;;13.10;99.90;;;;;;4949835;28;20032;-77
2023/08/08 01:24:48;;;;;;;16.80;15.02;;;13.10;99.90;;;;;;4961026;28;20047;-77
2023/08/08 01:27:14;;;;;;;20.65;18.42;;;13.20;99.90;;;;;;4955955;28;20047;-77
2023/08/08 01:29:41;;;;;;;20.23;17.10;;;13.10;99.90;;;;;;4953440;29;20050;-77
2023/08/08 01:32:08;;;;;;;21.38;17.88;;;13.20;99.90;;;;;;4960961;28;20036;-77
2023/08/08 01:34:35;;;;;;;19.67;16.95;;;13.20;99.90;;;;;;4953573;29;20526;-77
2023/08/08 01:37:17;;;;;;;18.90;16.85;;;13.20;99.90;;;;;;4946729;29;20143;-77
2023/08/08 01:39:45;;;;;;;23.13;18.77;;;13.30;99.90;;;;;;4954222;28;20405;-77
2023/08/08 01:42:13;;;;;;;18.95;16.85;;;13.30;99.90;;;;;;4967018;28;20050;-77
2023/08/08 01:44:41;;;;;;;26.08;20.55;;;13.30;99.90;;;;;;4953796;28;20510;-77
2023/08/08 01:47:08;;;;;;;20.52;16.60;;;13.30;99.90;;;;;;4952279;29;20498;-77
2023/08/08 01:49:33;;;;;;;24.60;19.35;;;13.30;99.90;;;;;;4953111;29;20142;-77
2023/08/08 01:51:59;;;;;;;31.45;22.63;;;13.30;99.90;;;;;;4957313;28;20492;-77
2023/08/08 01:54:25;;;;;;;21.65;19.30;;;13.30;99.90;;;;;;4952808;29;20094;-77
2023/08/08 01:56:51;;;;;;;21.30;18.80;;;13.30;99.90;;;;;;4947516;29;20036;-77
2023/08/08 01:59:16;;;;;;;30.65;21.60;;;13.30;99.90;;;;;;4952873;29;20113;-77
2023/08/08 02:01:42;;;;;;;29.45;23.10;;;13.30;99.90;;;;;;4957324;28;20122;-77
2023/08/08 02:04:07;;;;;;;22.38;19.90;;;13.40;99.90;;;;;;4956584;28;20039;-76
2023/08/08 02:06:33;;;;;;;26.85;21.65;;;13.40;99.90;;;;;;4960350;28;20039;-77
2023/08/08 02:08:59;;;;;;;23.73;21.15;;;13.30;99.90;;;;;;4952125;29;20051;-77
2023/08/08 02:11:24;;;;;;;28.90;22.25;;;13.40;99.90;;;;;;4939674;28;20086;-77
2023/08/08 02:13:50;;;;;;;23.33;19.65;;;13.40;99.90;;;;;;4953327;28;20042;-77
2023/08/08 02:16:15;;;;;;;29.17;20.92;;;13.40;99.90;;;;;;4962619;28;20449;-77
2023/08/08 02:18:41;;;;;;;33.38;23.85;;;13.40;99.90;;;;;;4949248;29;20102;-77
2023/08/08 02:21:08;;;;;;;32.92;22.90;;;13.40;99.90;;;;;;4954626;28;20122;-77
2023/08/08 02:23:34;;;;;;;25.73;19.77;;;13.40;99.90;;;;;;4933539;29;20132;-77
2023/08/08 02:25:59;;;;;;;27.08;20.92;;;13.40;99.90;;;;;;4932874;29;20054;-77
2023/08/08 02:28:25;;;;;;;30.83;24.05;;;13.40;99.90;;;;;;4933717;29;20039;-77
2023/08/08 02:30:51;;;;;;;31.17;23.33;;;13.40;99.90;;;;;;4941282;29;20049;-77
2023/08/08 02:33:16;;;;;;;39.95;24.58;;;13.40;99.90;;;;;;4954460;28;20066;-77
2023/08/08 02:35:42;;;;;;;26.35;20.73;;;13.40;99.90;;;;;;4969076;28;20042;-76
2023/08/08 02:38:08;;;;;;;27.10;22.33;;;13.40;99.90;;;;;;4941792;28;20032;-76
2023/08/08 02:40:33;;;;;;;36.60;24.10;;;13.40;99.90;;;;;;4948949;29;20051;-76
2023/08/08 02:42:59;;;;;;;25.67;20.85;;;13.40;99.90;;;;;;4952520;29;20035;-77
2023/08/08 02:45:24;;;;;;;35.63;24.58;;;13.40;99.90;;;;;;4958077;28;20493;-77
2023/08/08 02:47:50;;;;;;;31.42;22.13;;;13.40;99.90;;;;;;4947457;28;20158;-77
2023/08/08 02:50:16;;;;;;;35.60;24.67;;;13.40;99.90;;;;;;4944569;29;20039;-77
2023/08/08 02:52:42;;;;;;;25.25;21.35;;;13.40;99.90;;;;;;4955248;28;20528;-76
2023/08/08 02:55:08;;;;;;;28.30;20.02;;;13.30;99.90;;;;;;4956186;29;20043;-76
2023/08/08 02:57:33;;;;;;;25.80;19.63;;;13.30;99.90;;;;;;4934426;29;20043;-76
2023/08/08 02:59:59;;;;;;;26.80;19.55;;;13.20;99.90;;;;;;4956993;28;20057;-76
2023/08/08 03:02:25;;;;;;;22.65;18.58;;;13.20;99.90;;;;;;4967422;28;20042;-77
2023/08/08 03:04:51;;;;;;;36.83;22.73;;;13.20;99.90;;;;;;4975786;28;20065;-77
2023/08/08 03:07:16;;;;;;;28.67;20.15;;;13.10;99.90;;;;;;4956385;28;20494;-77
2023/08/08 03:09:42;;;;;;;31.17;20.15;;;13.10;99.90;;;;;;4951730;29;20043;-77
2023/08/08 03:12:08;;;;;;;26.75;19.55;;;13.10;99.90;;;;;;4960121;28;20121;-77
2023/08/08 03:14:34;;;;;;;27.08;18.85;;;13.00;99.90;;;;;;4975210;28;20039;-77
2023/08/08 03:16:59;;;;;;;32.17;18.40;;;13.00;99.90;;;;;;4955979;28;20422;-77
2023/08/08 03:19:26;;;;;;;26.58;17.70;;;13.00;99.90;;;;;;4950452;29;20043;-77
2023/08/08 03:21:51;;;;;;;26.92;17.30;;;12.90;99.90;;;;;;4952265;29;20079;-77
2023/08/08 03:24:17;;;;;;;18.88;16.33;;;12.90;99.90;;;;;;4955285;29;20078;-77
2023/08/08 03:26:42;;;;;;;22.38;17.02;;;12.80;99.90;;;;;;4963038;28;20043;-76
2023/08/08 03:29:10;;;;;;;22.92;16.60;;;12.80;99.90;;;;;;4955669;29;20046;-76
2023/08/08 03:31:36;;;;;;;22.55;14.90;;;12.80;99.90;;;;;;4955514;29;20047;-76
2023/08/08 03:34:02;;;;;;;21.95;15.90;;;12.70;99.90;;;;;;4954427;29;20031;-76
2023/08/08 03:36:27;;;;;;;25.92;16.50;;;12.70;99.90;;;;;;4948983;28;20042;-76
2023/08/08 03:38:53;;;;;;;16.20;14.05;;;12.70;99.90;;;;;;4954634;29;20047;-76
2023/08/08 03:41:19;;;;;;;20.83;14.57;;;12.70;99.90;;;;;;4955544;29;20075;-76
2023/08/08 03:43:44;;;;;;;28.77;18.33;;;12.60;99.90;;;;;;4955377;29;20075;-76
2023/08/08 03:46:11;;;;;;;22.98;15.88;;;12.60;99.90;;;;;;4950558;28;20043;-76
2023/08/08 03:48:37;;;;;;;25.25;17.08;;;12.60;99.90;;;;;;4954667;29;20047;-76
2023/08/08 03:51:03;;;;;;;20.88;14.68;;;12.60;99.90;;;;;;4942949;29;20039;-76
2023/08/08 03:53:29;;;;;;;16.85;13.55;;;12.50;99.90;;;;;;4935991;29;20455;-77
2023/08/08 03:55:55;;;;;;;23.80;15.27;;;12.50;99.90;;;;;;4935675;29;20039;-77
2023/08/08 03:58:20;;;;;;;23.92;15.07;;;12.50;99.90;;;;;;4949511;29;20079;-77
2023/08/08 04:00:46;;;;;;;18.95;13.25;;;12.60;99.90;;;;;;4949756;28;20449;-77
2023/08/08 04:03:16;;;;;;;18.50;12.43;;;12.50;99.90;;;;;;4982453;28;20485;-77
2023/08/08 04:05:46;;;;;;;21.15;14.90;;;12.50;99.90;;;;;;4957898;28;20523;-77
2023/08/08 04:08:12;;;;;;;19.02;11.88;;;12.50;99.90;;;;;;4948748;29;20043;-76
2023/08/08 04:10:37;;;;;;;18.58;11.60;;;12.50;99.90;;;;;;4954977;29;20127;-76
2023/08/08 04:13:03;;;;;;;17.70;10.15;;;12.50;99.90;;;;;;4954964;29;20126;-76
2023/08/08 04:15:29;;;;;;;19.65;11.25;;;12.50;99.90;;;;;;4952213;29;20039;-76
2023/08/08 04:17:54;;;;;;;14.57;8.73;;;12.40;99.90;;;;;;4949628;28;20409;-76
2023/08/08 04:20:20;;;;;;;16.95;8.70;;;12.40;99.90;;;;;;4949390;29;20114;-76
2023/08/08 04:22:46;;;;;;;14.38;8.18;;;12.40;99.90;;;;;;4955048;29;20055;-76
2023/08/08 04:25:11;;;;;;;18.95;7.25;;;12.40;99.90;;;;;;4955009;29;20090;-77
2023/08/08 04:27:37;;;;;;;16.85;8.48;;;12.30;99.90;;;;;;4953745;28;20094;-77
2023/08/08 04:30:04;;;;;;;14.48;7.65;;;12.30;99.90;;;;;;4973944;28;20089;-77
2023/08/08 04:32:30;;;;;;;16.55;7.05;;;12.30;99.90;;;;;;4974522;28;20054;-79
2023/08/08 04:34:55;;;;;;;13.80;7.07;;;12.30;99.90;;;;;;4967136;28;20383;-79
2023/08/08 04:37:21;;;;;;;12.70;6.32;;;12.30;99.90;;;;;;4957197;29;20126;-79
2023/08/08 04:39:47;;;;;;;11.57;4.93;;;12.30;99.90;;;;;;4957015;29;20125;-79
2023/08/08 04:42:12;;;;;;;12.88;5.57;;;12.30;99.90;;;;;;4951816;28;20134;-77
2023/08/08 04:44:38;;;;;;;11.35;5.57;;;12.30;99.90;;;;;;4958979;28;20047;-77
2023/08/08 04:47:04;;;;;;;10.23;5.00;;;12.30;99.90;;;;;;4934659;29;20047;-77
2023/08/08 04:49:30;;;;;;;12.18;5.63;;;12.30;99.90;;;;;;4935487;29;20513;-77
2023/08/08 04:51:56;;;;;;;10.77;5.00;;;12.30;99.90;;;;;;4935143;29;20101;-77
2023/08/08 04:54:21;;;;;;;12.10;4.68;;;12.30;99.90;;;;;;4958934;28;20180;-76
2023/08/08 04:56:47;;;;;;;10.68;4.72;;;12.30;99.90;;;;;;4945600;29;20036;-77
2023/08/08 04:59:12;;;;;;;14.77;5.38;;;12.30;99.90;;;;;;4954349;29;20046;-77
2023/08/08 05:01:38;;;;;;;10.02;5.32;;;12.30;99.90;;;;;;4951700;29;20495;-77
2023/08/08 05:04:04;;;;;;;9.07;4.68;;;12.30;99.90;;;;;;4953897;29;20043;-77
2023/08/08 05:06:29;;;;;;;12.48;4.95;;;12.30;99.90;;;;;;4953631;29;20061;-77
2023/08/08 05:08:56;;;;;;;9.52;4.53;;;12.30;99.90;;;;;;4944857;29;20082;-77
2023/08/08 05:11:22;;;;;;;10.80;4.22;;;12.40;99.90;;;;;;4946905;29;20384;-76
2023/08/08 05:13:48;;;;;;;10.65;4.25;;;12.40;99.90;;;;;;4953282;28;20093;-76
2023/08/08 05:16:14;;;;;;;10.32;4.75;;;12.40;99.90;;;;;;4956790;28;20125;-76
2023/08/08 05:18:40;;;;;;;9.73;4.45;;;12.40;99.90;;;;;;4946249;29;20051;-77
2023/08/08 05:21:06;;;;;;;11.95;4.57;;;12.50;99.90;;;;;;4952749;29;20039;-76
2023/08/08 05:23:31;;;;;;;11.95;4.85;;;12.60;99.90;;;;;;4953796;29;20556;-76
2023/08/08 05:25:57;;;;;;;9.32;4.15;;;12.70;99.90;;;;;;4951005;28;20094;-76
2023/08/08 05:28:23;;;;;;;11.65;3.65;;;12.80;99.90;;;;;;4945200;28;20043;-76
2023/08/08 05:30:48;;;;;;;10.60;3.75;;;12.80;99.90;;;;;;4938036;29;20039;-77
2023/08/08 05:33:14;;;;;;;6.43;3.70;;;12.90;99.90;;;;;;4941145;29;20513;-77
2023/08/08 05:35:39;;;;;;;8.63;4.05;;;12.90;99.90;;;;;;4954587;28;20049;-77
2023/08/08 05:38:05;;;;;;;9.57;3.63;;;12.90;99.90;;;;;;4965218;28;20042;-77
2023/08/08 05:40:33;;;;;;;9.38;3.28;;;12.90;99.90;;;;;;4947458;28;20139;-77
2023/08/08 05:42:59;;;;;;;11.98;3.28;;;12.90;99.90;;;;;;4952804;28;20579;-77
2023/08/08 05:45:24;;;;;;;8.32;3.60;;;12.90;99.90;;;;;;4957279;28;20042;-77
2023/08/08 05:47:50;;;;;;;8.57;3.30;;;12.90;99.90;;;;;;4952110;29;20078;-77
2023/08/08 05:50:16;;;;;;;7.53;3.38;;;12.90;99.90;;;;;;4945211;29;20082;-76
2023/08/08 05:52:41;;;;;;;7.68;3.15;;;13.00;99.90;;;;;;4948652;28;20039;-76
2023/08/08 05:55:07;;;;;;;9.32;3.17;;;13.00;99.90;;;;;;4934651;28;20031;-77
2023/08/08 05:57:33;;;;;;;8.45;3.15;;;13.10;99.90;;;;;;4956068;28;20043;-77
2023/08/08 05:59:58;;;;;;;11.00;3.40;;;13.20;99.90;;;;;;4946504;28;20041;-77
2023/08/08 06:02:24;;;;;;;8.65;3.15;;;13.20;99.90;;;;;;4933132;29;20035;-76
2023/08/08 06:04:50;;;;;;;8.68;3.35;;;13.30;99.90;;;;;;4937785;29;20043;-76
2023/08/08 06:07:15;;;;;;;7.90;3.42;;;13.40;99.90;;;;;;4926657;29;20150;-76
2023/08/08 06:09:41;;;;;;;8.52;3.45;;;13.40;99.90;;;;;;4938343;29;20044;-75
2023/08/08 06:12:07;;;;;;;11.15;3.38;;;13.50;99.90;;;;;;4950456;29;20040;-76
2023/08/08 06:14:32;;;;;;;8.43;2.60;;;13.60;99.90;;;;;;4951463;29;20553;-76
2023/08/08 06:16:58;;;;;;;7.45;2.30;;;13.70;99.90;;;;;;4942233;28;20043;-76
2023/08/08 06:19:24;;;;;;;9.20;2.70;;;13.80;99.90;;;;;;4949458;29;20432;-76
2023/08/08 06:21:50;;;;;;;10.73;2.45;;;13.80;99.90;;;;;;4947753;29;20402;-76
2023/08/08 06:24:15;;;;;;;6.03;2.50;;;14.00;99.90;;;;;;4952450;29;20039;-76
2023/08/08 06:26:41;;;;;;;9.65;2.50;;;14.20;99.90;;;;;;4951844;28;20561;-76
2023/08/08 06:29:06;;;;;;;8.35;2.45;;;14.30;99.90;;;;;;4952605;29;20050;-76
2023/08/08 06:31:32;;;;;;;9.98;2.70;;;14.40;99.90;;;;;;4953482;28;20477;-76
2023/08/08 06:33:58;;;;;;;9.05;2.25;;;14.40;99.90;;;;;;4963597;28;20042;-76
2023/08/08 06:36:23;;;;;;;11.07;3.00;;;14.40;99.90;;;;;;4955598;28;20130;-76
2023/08/08 06:38:49;;;;;;;8.13;2.30;;;14.50;99.90;;;;;;4971750;28;20113;-76
2023/08/08 06:41:14;;;;;;;6.97;2.38;;;14.60;99.90;;;;;;4964081;28;20031;-76
2023/08/08 06:43:40;;;;;;;7.35;2.20;;;14.70;99.90;;;;;;4948047;28;20743;-76
2023/08/08 06:46:06;;;;;;;8.02;2.30;;;14.70;99.90;;;;;;4963439;28;20073;-76
2023/08/08 06:48:31;;;;;;;7.90;2.67;;;14.70;99.90;;;;;;4958450;28;20059;-75
2023/08/08 06:50:57;;;;;;;8.82;2.60;;;14.70;99.90;;;;;;4939988;29;20395;-75
2023/08/08 06:53:23;;;;;;;6.75;2.42;;;14.70;99.90;;;;;;4943400;29;20126;-76
2023/08/08 06:55:48;;;;;;;7.10;1.90;;;14.70;99.90;;;;;;4930294;29;20495;-76
2023/08/08 06:58:14;;;;;;;6.05;2.00;;;14.70;99.90;;;;;;4946933;29;20047;-75
2023/08/08 07:00:39;;;;;;;7.55;1.70;;;14.80;99.90;;;;;;4952289;29;20407;-76
2023/08/08 07:03:06;;;;;;;5.07;1.70;;;14.80;99.90;;;;;;4952223;29;20047;-76
2023/08/08 07:05:31;;;;;;;8.32;2.22;;;14.80;99.90;;;;;;4955912;28;20074;-77
2023/08/08 07:07:57;;;;;;;6.68;1.83;;;14.80;99.90;;;;;;4944770;28;20117;-76
2023/08/08 07:10:23;;;;;;;9.73;2.33;;;14.90;99.90;;;;;;4950230;29;20050;-77
2023/08/08 07:12:49;;;;;;;7.22;2.53;;;14.90;99.90;;;;;;4952597;28;20047;-77
2023/08/08 07:15:15;;;;;;;8.05;2.00;;;15.00;99.90;;;;;;4963454;28;20035;-78
2023/08/08 07:17:40;;;;;;;10.07;2.10;;;15.00;99.90;;;;;;4971309;28;20039;-78
2023/08/08 07:20:07;;;;;;;7.53;1.90;;;15.10;99.90;;;;;;4955364;28;20105;-78
2023/08/08 07:22:33;;;;;;;7.70;2.55;;;15.10;99.90;;;;;;4971522;28;20564;-77
2023/08/08 07:24:59;;;;;;;5.80;1.85;;;15.20;99.90;;;;;;4971294;28;20039;-78
2023/08/08 07:27:26;;;;;;;5.55;2.33;;;15.20;99.90;;;;;;4954830;28;20042;-77
2023/08/08 07:29:52;;;;;;;7.07;1.70;;;15.30;99.90;;;;;;4963217;28;20046;-78
2023/08/08 07:32:17;;;;;;;8.20;2.35;;;15.40;99.90;;;;;;4971252;28;20493;-78
2023/08/08 07:34:43;;;;;;;5.30;1.95;;;15.50;99.90;;;;;;4971232;28;20101;-77
2023/08/08 07:37:09;;;;;;;6.65;2.00;;;15.60;99.90;;;;;;4961283;28;20059;-77
2023/08/08 07:39:34;;;;;;;7.80;1.70;;;15.80;99.90;;;;;;4966047;28;20031;-77
2023/08/08 07:42:00;;;;;;;10.50;2.00;;;16.00;99.90;;;;;;4955751;28;20462;-77
2023/08/08 07:44:26;;;;;;;7.82;1.92;;;16.20;99.90;;;;;;4950995;28;20526;-77
2023/08/08 07:46:51;;;;;;;5.45;1.85;;;16.40;99.90;;;;;;4963438;28;20043;-77
2023/08/08 07:49:17;;;;;;;6.35;1.83;;;16.60;99.90;;;;;;4974760;28;20085;-78
2023/08/08 07:51:43;;;;;;;5.75;1.80;;;16.60;99.90;;;;;;4974513;28;20043;-78
2023/08/08 07:54:10;;;;;;;6.80;1.80;;;16.80;99.90;;;;;;4970531;28;20062;-77
2023/08/08 07:56:36;;;;;;;4.43;1.63;;;16.90;99.90;;;;;;4966372;28;20101;-77
2023/08/08 07:59:02;;;;;;;3.05;1.40;;;17.00;99.90;;;;;;4974566;28;20070;-77
2023/08/08 08:01:28;;;;;;;3.63;1.38;;;17.00;99.90;;;;;;4974598;28;20042;-77
2023/08/08 08:03:54;;;;;;;4.93;1.52;;;17.10;99.90;;;;;;4946027;28;20043;-77
2023/08/08 08:06:20;;;;;;;5.72;1.60;;;17.10;99.90;;;;;;4966379;28;20046;-78
2023/08/08 08:08:45;;;;;;;4.00;1.40;;;17.10;99.90;;;;;;4974615;28;20039;-77
2023/08/08 08:11:13;;;;;;;3.55;1.25;;;17.10;99.90;;;;;;4974317;28;20039;-77
2023/08/08 08:13:39;;;;;;;3.47;1.30;;;17.10;99.90;;;;;;4974174;28;20616;-77
2023/08/08 08:16:05;;;;;;;5.32;1.65;;;17.20;99.90;;;;;;4970325;28;20030;-77
2023/08/08 08:18:32;;;;;;;5.07;1.40;;;17.40;99.90;;;;;;4963723;28;20114;-77
2023/08/08 08:20:57;;;;;;;6.78;1.70;;;17.50;99.90;;;;;;4961329;28;20103;-77
2023/08/08 08:23:23;;;;;;;4.40;1.25;;;17.60;99.90;;;;;;4966189;28;20275;-77
2023/08/08 08:25:50;;;;;;;6.65;1.42;;;17.70;99.90;;;;;;4957825;28;20043;-77
2023/08/08 08:28:16;;;;;;;5.18;1.52;;;17.60;99.90;;;;;;4974431;28;20054;-77
2023/08/08 08:30:42;;;;;;;3.95;1.50;;;17.70;99.90;;;;;;4974026;28;20035;-77
2023/08/08 08:33:07;;;;;;;3.72;1.70;;;17.70;99.90;;;;;;4962522;28;20426;-77
2023/08/08 08:35:34;;;;;;;2.90;1.25;;;17.70;99.90;;;;;;4969825;28;20039;-77
2023/08/08 08:38:00;;;;;;;6.78;1.83;;;17.80;99.90;;;;;;4973609;28;20081;-77
2023/08/08 08:40:27;;;;;;;4.50;1.40;;;17.90;99.90;;;;;;4974077;28;20074;-77
2023/08/08 08:42:53;;;;;;;4.28;1.40;;;18.00;99.90;;;;;;4973731;28;20047;-76
2023/08/08 08:45:21;;;;;;;4.97;1.30;;;18.10;99.90;;;;;;4968084;28;20047;-77
2023/08/08 08:47:48;;;;;;;5.05;1.45;;;18.10;99.90;;;;;;4965453;28;20082;-77
2023/08/08 08:50:15;;;;;;;3.53;1.25;;;18.10;99.90;;;;;;4972718;28;20051;-77
2023/08/08 08:52:42;;;;;;;5.60;1.30;;;18.10;99.90;;;;;;4973950;28;20043;-77
2023/08/08 08:55:08;;;;;;;5.55;1.40;;;18.10;99.90;;;;;;4969648;28;20046;-77
2023/08/08 08:57:35;;;;;;;4.13;1.35;;;18.10;99.90;;;;;;4965233;28;20130;-77
2023/08/08 09:00:01;;;;;;;4.68;1.40;;;18.10;99.90;;;;;;4973419;28;20034;-77
2023/08/08 09:02:27;;;;;;;4.88;1.55;;;18.20;99.90;;;;;;4973456;28;20042;-77
2023/08/08 09:04:53;;;;;;;4.53;1.52;;;18.10;99.90;;;;;;4973777;28;20050;-77
2023/08/08 09:07:22;;;;;;;6.38;1.77;;;18.10;99.90;;;;;;4973346;28;20401;-77
2023/08/08 09:09:48;;;;;;;5.00;1.45;;;18.30;99.90;;;;;;4969634;28;20042;-77
2023/08/08 09:12:14;;;;;;;4.20;1.30;;;18.30;99.90;;;;;;4961893;28;20532;-77
2023/08/08 09:14:41;;;;;;;4.70;1.35;;;18.30;99.90;;;;;;4954058;29;20043;-77
2023/08/08 09:17:13;;;;;;;4.47;1.25;;;18.20;99.90;;;;;;4953565;29;20039;-77
2023/08/08 09:19:39;;;;;;;4.45;1.05;;;18.20;99.90;;;;;;4953835;29;20039;-77
2023/08/08 09:22:05;;;;;;;4.82;1.40;;;18.20;99.90;;;;;;4959630;28;20054;-77
2023/08/08 09:24:31;;;;;;;4.63;1.30;;;18.10;99.90;;;;;;4959923;28;20074;-77
2023/08/08 09:26:56;;;;;;;5.35;1.40;;;17.90;99.90;;;;;;4971739;28;20501;-77
2023/08/08 09:29:22;;;;;;;5.57;1.20;;;17.70;99.90;;;;;;4972991;28;20038;-77
2023/08/08 09:31:49;;;;;;;4.50;1.35;;;17.60;99.90;;;;;;4972770;28;20509;-76
2023/08/08 09:34:14;;;;;;;5.68;1.30;;;17.70;99.90;;;;;;4972702;28;20560;-77
2023/08/08 09:36:40;;;;;;;3.78;1.25;;;18.20;99.90;;;;;;4958715;28;20043;-77
2023/08/08 09:39:07;;;;;;;6.28;1.40;;;19.00;99.90;;;;;;4964862;28;20097;-77
2023/08/08 09:41:33;;;;;;;4.15;1.23;;;19.90;99.90;;;;;;4972757;28;20043;-77
2023/08/08 09:43:59;;;;;;;5.32;1.38;;;20.30;99.90;;;;;;4972556;28;20034;-77
2023/08/08 09:46:25;;;;;;;5.13;1.55;;;20.20;99.90;;;;;;4972339;28;20034;-77
2023/08/08 09:48:52;;;;;;;5.20;1.52;;;19.80;99.90;;;;;;4972590;28;20470;-77
2023/08/08 09:51:19;;;;;;;4.07;1.30;;;19.30;99.90;;;;;;4969046;28;20046;-77
2023/08/08 09:53:47;;;;;;;4.28;1.23;;;19.00;99.90;;;;;;4956655;28;20039;-77
2023/08/08 09:56:13;;;;;;;4.25;1.35;;;18.60;99.90;;;;;;4954885;28;20050;-77
2023/08/08 09:58:40;;;;;;;6.32;1.40;;;18.30;99.90;;;;;;4969145;28;20182;-77
2023/08/08 10:01:06;;;;;;;5.60;1.55;;;18.00;99.90;;;;;;4945743;28;20063;-77
2023/08/08 10:03:33;;;;;;;6.35;1.80;;;17.80;99.90;;;;;;4957599;28;20109;-76
2023/08/08 10:05:59;;;;;;;3.83;1.35;;;17.70;99.90;;;;;;4971321;28;20046;-77
2023/08/08 10:08:24;;;;;;;4.90;1.58;;;17.90;99.90;;;;;;4972257;28;20054;-77
2023/08/08 10:10:51;;;;;;;2.90;1.20;;;18.50;99.90;;;;;;4966047;28;20042;-77
2023/08/08 10:13:22;;;;;;;5.13;1.50;;;18.80;99.90;;;;;;4965923;28;20065;-77
2023/08/08 10:15:47;;;;;;;4.63;1.40;;;18.60;99.90;;;;;;4972270;28;20112;-77
2023/08/08 10:18:14;;;;;;;3.33;1.40;;;18.40;99.90;;;;;;4966827;28;20390;-77
2023/08/08 10:20:44;;;;;;;4.30;1.30;;;18.30;99.90;;;;;;4964297;28;20105;-77
2023/08/08 10:23:09;;;;;;;3.53;1.23;;;18.80;99.90;;;;;;4971960;28;20082;-77
2023/08/08 10:25:36;;;;;;;4.90;1.48;;;19.20;99.90;;;;;;4962775;28;20082;-77
2023/08/08 10:28:08;;;;;;;4.95;1.42;;;19.30;99.90;;;;;;4962684;28;20093;-77
2023/08/08 10:30:54;;;;;;;3.75;1.80;;;19.10;99.90;;;;;;4963900;28;20053;-77
2023/08/08 10:33:21;;;;;;;3.50;1.60;;;18.80;99.90;;;;;;4955539;28;20042;-76
2023/08/08 10:35:56;;;;;;;4.47;1.55;;;18.40;99.90;;;;;;4924919;29;20486;-77
2023/08/08 10:38:23;;;;;;;3.75;1.55;;;18.20;99.90;;;;;;4947218;29;20035;-76
2023/08/08 10:41:03;;;;;;;5.13;1.67;;;18.30;99.90;;;;;;4948424;28;20130;-77
2023/08/08 10:43:29;;;;;;;6.22;2.00;;;18.40;99.90;;;;;;4963616;28;20137;-76
2023/08/08 10:46:00;;;;;;;4.60;1.83;;;18.60;99.90;;;;;;4948960;28;20550;-76
2023/08/08 10:48:26;;;;;;;3.97;1.70;;;18.90;99.90;;;;;;4952558;29;20066;-75
2023/08/08 10:50:56;;;;;;;3.88;1.83;;;19.20;99.90;;;;;;4952396;29;20035;-75
2023/08/08 10:53:30;;;;;;;3.65;1.65;;;19.50;99.90;;;;;;4952303;29;20089;-75
2023/08/08 10:56:06;;;;;;;4.60;1.40;;;19.80;99.90;;;;;;4994550;23;20047;-78
2023/08/08 10:58:40;;;;;;;6.10;1.40;;;19.70;99.90;;;;;;4936156;28;20051;-79
2023/08/08 11:01:35;;;;;;;5.38;1.77;;;19.30;99.90;;;;;;4931492;28;20304;-78
2023/08/08 11:04:07;;;;;;;4.07;1.65;;;18.60;99.90;;;;;;4935804;28;20078;-75
2023/08/08 11:06:34;;;;;;;4.35;1.52;;;18.10;99.90;;;;;;4933926;29;20074;-75
2023/08/08 11:09:01;;;;;;;4.75;1.70;;;17.80;99.90;;;;;;4941467;29;20045;-76
2023/08/08 11:11:26;;;;;;;4.00;1.65;;;17.80;99.90;;;;;;4920461;29;20047;-76
2023/08/08 11:13:52;;;;;;;5.63;1.90;;;17.80;99.90;;;;;;4924241;28;20131;-76
2023/08/08 11:16:19;;;;;;;5.40;1.90;;;17.90;99.90;;;;;;4949255;29;20031;-76
2023/08/08 11:18:45;;;;;;;4.43;1.70;;;18.50;99.90;;;;;;4953218;29;20039;-75
2023/08/08 11:21:11;;;;;;;4.68;1.92;;;19.00;99.90;;;;;;4935100;29;20183;-75
2023/08/08 11:23:38;;;;;;;6.28;1.90;;;19.50;99.90;;;;;;4939659;29;20086;-75
2023/08/08 11:26:04;;;;;;;4.53;1.75;;;20.00;99.90;;;;;;4939502;29;20054;-76
2023/08/08 11:28:33;;;;;;;5.68;1.77;;;20.00;99.90;;;;;;4923531;29;20043;-76
2023/08/08 11:30:59;;;;;;;5.45;2.00;;;19.60;99.90;;;;;;4945435;28;20056;-76
2023/08/08 11:33:25;;;;;;;4.97;1.77;;;19.10;99.90;;;;;;4922103;29;20050;-75
2023/08/08 11:35:52;;;;;;;6.45;2.10;;;18.50;99.90;;;;;;4944248;28;20026;-76
2023/08/08 11:38:18;;;;;;;4.10;1.90;;;18.00;99.90;;;;;;4939789;29;20462;-75
2023/08/08 11:40:44;;;;;;;5.50;2.38;;;17.50;99.90;;;;;;4923833;29;20102;-75
2023/08/08 11:43:13;;;;;;;5.43;2.60;;;17.30;99.90;;;;;;4945153;29;20039;-77
2023/08/08 11:45:45;;;;;;;4.88;2.80;;;17.50;99.90;;;;;;4936931;28;20532;-74
2023/08/08 11:48:10;;;;;;;5.38;2.85;;;18.10;99.90;;;;;;4937412;29;20039;-75
2023/08/08 11:50:37;;;;;;;6.60;2.80;;;18.70;99.90;;;;;;4948838;28;20043;-75
2023/08/08 11:53:03;;;;;;;3.83;1.90;;;19.30;99.90;;;;;;4952646;28;20142;-75
2023/08/08 11:55:30;;;;;;;5.50;2.10;;;19.50;99.90;;;;;;4921753;29;20238;-76
2023/08/08 11:58:01;;;;;;;4.55;2.15;;;19.50;99.90;;;;;;4929050;29;20043;-75
2023/08/08 12:00:29;;;;;;;4.72;2.20;;;19.50;99.90;;;;;;4939330;29;20046;-75
2023/08/08 12:02:55;;;;;;;5.75;1.92;;;19.40;99.90;;;;;;4924418;28;20039;-74
2023/08/08 12:05:22;;;;;;;5.15;2.05;;;19.20;99.90;;;;;;4942360;28;20038;-75
2023/08/08 12:07:50;;;;;;;6.30;1.73;;;19.00;99.90;;;;;;4943865;28;20050;-76
2023/08/08 12:10:22;;;;;;;5.00;1.70;;;18.80;99.90;;;;;;4914958;29;20089;-74
2023/08/08 12:12:55;;;;;;;7.05;2.17;;;18.60;99.90;;;;;;4963378;28;20043;-74
2023/08/08 12:15:21;;;;;;;4.68;2.00;;;18.80;99.90;;;;;;4942205;29;20043;-74
2023/08/08 12:17:47;;;;;;;5.47;2.00;;;19.30;99.90;;;;;;4921424;28;20039;-75
2023/08/08 12:20:15;;;;;;;5.20;1.95;;;19.80;99.90;;;;;;4945800;29;20117;-75
2023/08/08 12:22:41;;;;;;;4.43;1.70;;;20.40;99.90;;;;;;4953523;28;20417;-74
2023/08/08 12:25:12;;;;;;;4.57;1.75;;;20.90;99.90;;;;;;4924970;28;20183;-75
2023/08/08 12:27:38;;;;;;;4.07;1.42;;;21.00;99.90;;;;;;4922229;29;20494;-75
2023/08/08 12:30:10;;;;;;;5.22;1.73;;;20.60;99.90;;;;;;4923706;29;20413;-76
2023/08/08 12:32:38;;;;;;;3.40;1.65;;;20.20;99.90;;;;;;4923208;29;20043;-75
2023/08/08 12:35:04;;;;;;;4.10;1.75;;;19.70;99.90;;;;;;4922646;29;20073;-75